sensor_id;sensor_type;location;lat;lon;timestamp;P1;durP1;ratioP1;P2;durP2;ratioP2
27744;SDS011;61387;48.112;8.616;2023-03-03T00:01:54;47.27;;;22.67;;
27744;SDS011;61387;48.112;8.616;2023-03-03T00:04:20;46.23;;;23.37;;
27744;SDS011;61387;48.112;8.616;2023-03-03T00:06:45;50.00;;;23.13;;
27744;SDS011;61387;48.112;8.616;2023-03-03T00:09:15;44.73;;;22.87;;
27744;SDS011;61387;48.112;8.616;2023-03-03T00:11:40;42.30;;;21.47;;
27744;SDS011;61387;48.112;8.616;2023-03-03T00:14:21;45.40;;;22.07;;
27744;SDS011;61387;48.112;8.616;2023-03-03T00:16:52;46.07;;;22.47;;
27744;SDS011;61387;48.112;8.616;2023-03-03T00:19:19;41.63;;;20.50;;
27744;SDS011;61387;48.112;8.616;2023-03-03T00:21:46;44.00;;;21.07;;
27744;SDS011;61387;48.112;8.616;2023-03-03T00:24:17;43.23;;;21.57;;
27744;SDS011;61387;48.112;8.616;2023-03-03T00:26:52;45.03;;;21.23;;
27744;SDS011;61387;48.112;8.616;2023-03-03T00:32:15;47.30;;;21.43;;
27744;SDS011;61387;48.112;8.616;2023-03-03T00:34:45;44.33;;;21.27;;
27744;SDS011;61387;48.112;8.616;2023-03-03T00:37:22;44.57;;;21.23;;
27744;SDS011;61387;48.112;8.616;2023-03-03T00:43:11;50.57;;;22.70;;
27744;SDS011;61387;48.112;8.616;2023-03-03T00:45:48;47.83;;;21.93;;
27744;SDS011;61387;48.112;8.616;2023-03-03T00:50:53;46.67;;;22.40;;
27744;SDS011;61387;48.112;8.616;2023-03-03T00:53:21;46.50;;;22.47;;
27744;SDS011;61387;48.112;8.616;2023-03-03T00:55:48;44.07;;;21.50;;
27744;SDS011;61387;48.112;8.616;2023-03-03T00:58:15;42.77;;;21.97;;
27744;SDS011;61387;48.112;8.616;2023-03-03T01:00:42;50.00;;;21.87;;
27744;SDS011;61387;48.112;8.616;2023-03-03T01:03:09;46.23;;;21.33;;
27744;SDS011;61387;48.112;8.616;2023-03-03T01:05:38;40.73;;;20.80;;
27744;SDS011;61387;48.112;8.616;2023-03-03T01:08:04;46.90;;;21.33;;
27744;SDS011;61387;48.112;8.616;2023-03-03T01:10:31;48.47;;;22.20;;
27744;SDS011;61387;48.112;8.616;2023-03-03T01:13:01;50.80;;;22.03;;
27744;SDS011;61387;48.112;8.616;2023-03-03T01:15:28;50.13;;;23.07;;
27744;SDS011;61387;48.112;8.616;2023-03-03T01:17:54;43.95;;;20.92;;
27744;SDS011;61387;48.112;8.616;2023-03-03T01:20:19;47.70;;;21.30;;
27744;SDS011;61387;48.112;8.616;2023-03-03T01:22:45;44.23;;;20.87;;
27744;SDS011;61387;48.112;8.616;2023-03-03T01:25:11;47.80;;;22.60;;
27744;SDS011;61387;48.112;8.616;2023-03-03T01:27:36;42.17;;;20.07;;
27744;SDS011;61387;48.112;8.616;2023-03-03T01:30:03;46.80;;;22.03;;
27744;SDS011;61387;48.112;8.616;2023-03-03T01:32:30;44.93;;;20.87;;
27744;SDS011;61387;48.112;8.616;2023-03-03T01:34:56;48.70;;;21.73;;
27744;SDS011;61387;48.112;8.616;2023-03-03T01:37:22;47.97;;;21.83;;
27744;SDS011;61387;48.112;8.616;2023-03-03T01:39:51;45.50;;;20.97;;
27744;SDS011;61387;48.112;8.616;2023-03-03T01:42:18;53.90;;;22.77;;
27744;SDS011;61387;48.112;8.616;2023-03-03T01:44:45;44.83;;;21.43;;
27744;SDS011;61387;48.112;8.616;2023-03-03T01:47:21;43.80;;;20.40;;
27744;SDS011;61387;48.112;8.616;2023-03-03T01:52:24;49.13;;;21.97;;
27744;SDS011;61387;48.112;8.616;2023-03-03T01:54:56;44.73;;;22.60;;
27744;SDS011;61387;48.112;8.616;2023-03-03T01:57:27;57.20;;;25.33;;
27744;SDS011;61387;48.112;8.616;2023-03-03T02:00:01;50.13;;;22.63;;
27744;SDS011;61387;48.112;8.616;2023-03-03T02:02:28;49.13;;;22.40;;
27744;SDS011;61387;48.112;8.616;2023-03-03T02:04:55;42.60;;;20.00;;
27744;SDS011;61387;48.112;8.616;2023-03-03T02:07:22;47.67;;;20.93;;
27744;SDS011;61387;48.112;8.616;2023-03-03T02:10:06;50.70;;;23.30;;
27744;SDS011;61387;48.112;8.616;2023-03-03T02:12:43;48.53;;;22.93;;
27744;SDS011;61387;48.112;8.616;2023-03-03T02:17:48;48.17;;;22.80;;
27744;SDS011;61387;48.112;8.616;2023-03-03T02:20:19;52.17;;;22.83;;
27744;SDS011;61387;48.112;8.616;2023-03-03T02:22:55;54.73;;;23.80;;
27744;SDS011;61387;48.112;8.616;2023-03-03T02:28:20;50.67;;;23.30;;
27744;SDS011;61387;48.112;8.616;2023-03-03T02:30:48;50.30;;;23.80;;
27744;SDS011;61387;48.112;8.616;2023-03-03T02:33:13;51.58;;;23.75;;
27744;SDS011;61387;48.112;8.616;2023-03-03T02:35:39;55.53;;;26.03;;
27744;SDS011;61387;48.112;8.616;2023-03-03T02:38:20;54.57;;;25.03;;
27744;SDS011;61387;48.112;8.616;2023-03-03T02:41:08;59.40;;;25.57;;
27744;SDS011;61387;48.112;8.616;2023-03-03T02:44:12;53.63;;;23.40;;
27744;SDS011;61387;48.112;8.616;2023-03-03T02:46:40;51.23;;;24.07;;
27744;SDS011;61387;48.112;8.616;2023-03-03T02:49:09;51.30;;;24.50;;
27744;SDS011;61387;48.112;8.616;2023-03-03T02:51:36;49.67;;;22.47;;
27744;SDS011;61387;48.112;8.616;2023-03-03T02:54:02;51.17;;;22.27;;
27744;SDS011;61387;48.112;8.616;2023-03-03T02:56:28;49.47;;;23.07;;
27744;SDS011;61387;48.112;8.616;2023-03-03T02:58:54;51.10;;;22.80;;
27744;SDS011;61387;48.112;8.616;2023-03-03T03:01:20;54.37;;;24.30;;
27744;SDS011;61387;48.112;8.616;2023-03-03T03:03:46;82.73;;;31.93;;
27744;SDS011;61387;48.112;8.616;2023-03-03T03:06:12;67.18;;;27.52;;
27744;SDS011;61387;48.112;8.616;2023-03-03T03:08:38;59.73;;;24.90;;
27744;SDS011;61387;48.112;8.616;2023-03-03T03:11:03;53.13;;;24.63;;
27744;SDS011;61387;48.112;8.616;2023-03-03T03:13:30;53.93;;;23.67;;
27744;SDS011;61387;48.112;8.616;2023-03-03T03:15:56;52.23;;;23.40;;
27744;SDS011;61387;48.112;8.616;2023-03-03T03:18:23;47.07;;;22.43;;
27744;SDS011;61387;48.112;8.616;2023-03-03T03:20:49;49.23;;;23.67;;
27744;SDS011;61387;48.112;8.616;2023-03-03T03:23:14;45.73;;;21.87;;
27744;SDS011;61387;48.112;8.616;2023-03-03T03:25:41;48.20;;;22.43;;
27744;SDS011;61387;48.112;8.616;2023-03-03T03:28:10;52.17;;;22.07;;
27744;SDS011;61387;48.112;8.616;2023-03-03T03:30:37;49.27;;;22.33;;
27744;SDS011;61387;48.112;8.616;2023-03-03T03:33:03;53.70;;;23.57;;
27744;SDS011;61387;48.112;8.616;2023-03-03T03:35:29;52.73;;;22.67;;
27744;SDS011;61387;48.112;8.616;2023-03-03T03:37:56;52.53;;;23.23;;
27744;SDS011;61387;48.112;8.616;2023-03-03T03:40:22;46.57;;;21.57;;
27744;SDS011;61387;48.112;8.616;2023-03-03T03:42:49;47.87;;;21.53;;
27744;SDS011;61387;48.112;8.616;2023-03-03T03:45:14;48.17;;;22.23;;
27744;SDS011;61387;48.112;8.616;2023-03-03T03:47:41;52.97;;;22.60;;
27744;SDS011;61387;48.112;8.616;2023-03-03T03:50:07;44.63;;;21.63;;
27744;SDS011;61387;48.112;8.616;2023-03-03T03:52:33;42.03;;;20.30;;
27744;SDS011;61387;48.112;8.616;2023-03-03T03:54:58;55.53;;;24.03;;
27744;SDS011;61387;48.112;8.616;2023-03-03T03:57:24;45.08;;;21.87;;
27744;SDS011;61387;48.112;8.616;2023-03-03T03:59:50;53.23;;;23.17;;
27744;SDS011;61387;48.112;8.616;2023-03-03T04:02:16;47.47;;;22.17;;
27744;SDS011;61387;48.112;8.616;2023-03-03T04:04:42;48.38;;;22.02;;
27744;SDS011;61387;48.112;8.616;2023-03-03T04:07:07;50.97;;;22.40;;
27744;SDS011;61387;48.112;8.616;2023-03-03T04:09:33;55.70;;;23.13;;
27744;SDS011;61387;48.112;8.616;2023-03-03T04:11:58;53.97;;;23.47;;
27744;SDS011;61387;48.112;8.616;2023-03-03T04:14:24;56.77;;;23.43;;
27744;SDS011;61387;48.112;8.616;2023-03-03T04:16:50;56.03;;;23.77;;
27744;SDS011;61387;48.112;8.616;2023-03-03T04:19:15;55.73;;;23.97;;
27744;SDS011;61387;48.112;8.616;2023-03-03T04:21:41;50.00;;;24.30;;
27744;SDS011;61387;48.112;8.616;2023-03-03T04:24:07;50.47;;;22.57;;
27744;SDS011;61387;48.112;8.616;2023-03-03T04:26:33;53.57;;;23.80;;
27744;SDS011;61387;48.112;8.616;2023-03-03T04:28:59;56.70;;;23.37;;
27744;SDS011;61387;48.112;8.616;2023-03-03T04:31:25;52.60;;;24.17;;
27744;SDS011;61387;48.112;8.616;2023-03-03T04:33:51;61.97;;;25.33;;
27744;SDS011;61387;48.112;8.616;2023-03-03T04:36:17;54.17;;;24.60;;
27744;SDS011;61387;48.112;8.616;2023-03-03T04:38:44;52.57;;;23.93;;
27744;SDS011;61387;48.112;8.616;2023-03-03T04:41:10;55.40;;;24.43;;
27744;SDS011;61387;48.112;8.616;2023-03-03T04:43:35;52.88;;;22.92;;
27744;SDS011;61387;48.112;8.616;2023-03-03T04:46:02;51.60;;;22.87;;
27744;SDS011;61387;48.112;8.616;2023-03-03T04:48:28;51.87;;;23.80;;
27744;SDS011;61387;48.112;8.616;2023-03-03T04:50:54;56.43;;;25.60;;
27744;SDS011;61387;48.112;8.616;2023-03-03T04:53:20;59.42;;;25.85;;
27744;SDS011;61387;48.112;8.616;2023-03-03T04:55:48;60.20;;;24.90;;
27744;SDS011;61387;48.112;8.616;2023-03-03T04:58:14;57.00;;;24.63;;
27744;SDS011;61387;48.112;8.616;2023-03-03T05:00:40;52.43;;;24.83;;
27744;SDS011;61387;48.112;8.616;2023-03-03T05:03:06;53.80;;;25.60;;
27744;SDS011;61387;48.112;8.616;2023-03-03T05:05:32;59.93;;;26.10;;
27744;SDS011;61387;48.112;8.616;2023-03-03T05:07:58;53.97;;;23.87;;
27744;SDS011;61387;48.112;8.616;2023-03-03T05:10:26;54.13;;;24.27;;
27744;SDS011;61387;48.112;8.616;2023-03-03T05:12:52;62.07;;;24.70;;
27744;SDS011;61387;48.112;8.616;2023-03-03T05:15:18;51.53;;;23.57;;
27744;SDS011;61387;48.112;8.616;2023-03-03T05:17:43;52.20;;;23.90;;
27744;SDS011;61387;48.112;8.616;2023-03-03T05:20:09;51.10;;;24.97;;
27744;SDS011;61387;48.112;8.616;2023-03-03T05:22:36;54.93;;;24.03;;
27744;SDS011;61387;48.112;8.616;2023-03-03T05:25:01;49.35;;;23.30;;
27744;SDS011;61387;48.112;8.616;2023-03-03T05:27:27;55.80;;;24.63;;
27744;SDS011;61387;48.112;8.616;2023-03-03T05:29:53;56.37;;;24.77;;
27744;SDS011;61387;48.112;8.616;2023-03-03T05:32:18;53.27;;;23.83;;
27744;SDS011;61387;48.112;8.616;2023-03-03T05:34:44;53.07;;;25.60;;
27744;SDS011;61387;48.112;8.616;2023-03-03T05:37:09;57.90;;;25.10;;
27744;SDS011;61387;48.112;8.616;2023-03-03T05:39:35;48.67;;;23.47;;
27744;SDS011;61387;48.112;8.616;2023-03-03T05:42:00;53.87;;;23.10;;
27744;SDS011;61387;48.112;8.616;2023-03-03T05:44:26;52.87;;;23.83;;
27744;SDS011;61387;48.112;8.616;2023-03-03T05:46:52;57.73;;;23.23;;
27744;SDS011;61387;48.112;8.616;2023-03-03T05:49:20;54.10;;;25.00;;
27744;SDS011;61387;48.112;8.616;2023-03-03T05:51:45;57.00;;;25.20;;
27744;SDS011;61387;48.112;8.616;2023-03-03T05:54:11;50.43;;;23.90;;
27744;SDS011;61387;48.112;8.616;2023-03-03T05:56:37;56.23;;;24.87;;
27744;SDS011;61387;48.112;8.616;2023-03-03T05:59:02;49.23;;;23.43;;
27744;SDS011;61387;48.112;8.616;2023-03-03T06:01:28;61.63;;;26.67;;
27744;SDS011;61387;48.112;8.616;2023-03-03T06:03:54;55.87;;;28.17;;
27744;SDS011;61387;48.112;8.616;2023-03-03T06:06:19;59.47;;;27.40;;
27744;SDS011;61387;48.112;8.616;2023-03-03T06:08:45;50.43;;;24.53;;
27744;SDS011;61387;48.112;8.616;2023-03-03T06:11:11;53.47;;;24.87;;
27744;SDS011;61387;48.112;8.616;2023-03-03T06:13:37;53.60;;;25.47;;
27744;SDS011;61387;48.112;8.616;2023-03-03T06:16:03;56.20;;;26.25;;
27744;SDS011;61387;48.112;8.616;2023-03-03T06:18:28;59.43;;;26.33;;
27744;SDS011;61387;48.112;8.616;2023-03-03T06:20:54;58.97;;;27.70;;
27744;SDS011;61387;48.112;8.616;2023-03-03T06:23:20;54.17;;;26.77;;
27744;SDS011;61387;48.112;8.616;2023-03-03T06:25:46;58.33;;;26.67;;
27744;SDS011;61387;48.112;8.616;2023-03-03T06:28:11;65.43;;;27.50;;
27744;SDS011;61387;48.112;8.616;2023-03-03T06:30:37;53.80;;;26.67;;
27744;SDS011;61387;48.112;8.616;2023-03-03T06:33:03;59.53;;;27.43;;
27744;SDS011;61387;48.112;8.616;2023-03-03T06:35:29;56.47;;;26.43;;
27744;SDS011;61387;48.112;8.616;2023-03-03T06:37:55;53.67;;;26.80;;
27744;SDS011;61387;48.112;8.616;2023-03-03T06:40:21;63.93;;;28.60;;
27744;SDS011;61387;48.112;8.616;2023-03-03T06:42:47;53.93;;;26.47;;
27744;SDS011;61387;48.112;8.616;2023-03-03T06:45:13;53.73;;;25.97;;
27744;SDS011;61387;48.112;8.616;2023-03-03T06:47:39;58.20;;;26.37;;
27744;SDS011;61387;48.112;8.616;2023-03-03T06:50:05;57.57;;;26.10;;
27744;SDS011;61387;48.112;8.616;2023-03-03T06:52:31;59.07;;;25.00;;
27744;SDS011;61387;48.112;8.616;2023-03-03T06:54:58;54.93;;;26.20;;
27744;SDS011;61387;48.112;8.616;2023-03-03T06:57:27;56.93;;;24.40;;
27744;SDS011;61387;48.112;8.616;2023-03-03T06:59:56;53.43;;;24.97;;
27744;SDS011;61387;48.112;8.616;2023-03-03T07:02:38;54.77;;;25.13;;
27744;SDS011;61387;48.112;8.616;2023-03-03T07:05:05;54.97;;;26.13;;
27744;SDS011;61387;48.112;8.616;2023-03-03T07:07:41;53.03;;;26.00;;
27744;SDS011;61387;48.112;8.616;2023-03-03T07:10:24;57.57;;;27.03;;
27744;SDS011;61387;48.112;8.616;2023-03-03T07:12:53;52.90;;;25.70;;
27744;SDS011;61387;48.112;8.616;2023-03-03T07:15:34;57.07;;;27.00;;
27744;SDS011;61387;48.112;8.616;2023-03-03T07:18:00;61.33;;;27.73;;
27744;SDS011;61387;48.112;8.616;2023-03-03T07:20:29;50.40;;;25.57;;
27744;SDS011;61387;48.112;8.616;2023-03-03T07:22:59;54.70;;;26.37;;
27744;SDS011;61387;48.112;8.616;2023-03-03T07:25:30;60.93;;;28.30;;
27744;SDS011;61387;48.112;8.616;2023-03-03T07:27:59;57.93;;;27.80;;
27744;SDS011;61387;48.112;8.616;2023-03-03T07:30:27;55.67;;;26.50;;
27744;SDS011;61387;48.112;8.616;2023-03-03T07:32:54;61.67;;;27.50;;
27744;SDS011;61387;48.112;8.616;2023-03-03T07:41:02;57.73;;;27.60;;
27744;SDS011;61387;48.112;8.616;2023-03-03T07:43:33;55.43;;;25.97;;
27744;SDS011;61387;48.112;8.616;2023-03-03T07:49:20;55.53;;;27.20;;
27744;SDS011;61387;48.112;8.616;2023-03-03T07:51:53;56.77;;;26.83;;
27744;SDS011;61387;48.112;8.616;2023-03-03T07:54:26;55.63;;;26.70;;
27744;SDS011;61387;48.112;8.616;2023-03-03T08:02:40;60.53;;;27.20;;
27744;SDS011;61387;48.112;8.616;2023-03-03T08:05:20;53.83;;;26.20;;
27744;SDS011;61387;48.112;8.616;2023-03-03T08:07:50;54.17;;;26.83;;
27744;SDS011;61387;48.112;8.616;2023-03-03T08:10:35;61.65;;;28.17;;
27744;SDS011;61387;48.112;8.616;2023-03-03T08:13:08;55.90;;;26.60;;
27744;SDS011;61387;48.112;8.616;2023-03-03T08:15:45;53.30;;;26.40;;
27744;SDS011;61387;48.112;8.616;2023-03-03T08:21:17;59.93;;;27.93;;
27744;SDS011;61387;48.112;8.616;2023-03-03T08:23:45;62.10;;;29.87;;
27744;SDS011;61387;48.112;8.616;2023-03-03T08:26:10;57.17;;;28.50;;
27744;SDS011;61387;48.112;8.616;2023-03-03T08:28:40;63.23;;;31.17;;
27744;SDS011;61387;48.112;8.616;2023-03-03T08:31:06;64.43;;;30.83;;
27744;SDS011;61387;48.112;8.616;2023-03-03T08:33:32;62.70;;;30.93;;
27744;SDS011;61387;48.112;8.616;2023-03-03T08:35:57;56.43;;;27.73;;
27744;SDS011;61387;48.112;8.616;2023-03-03T08:38:23;58.97;;;30.07;;
27744;SDS011;61387;48.112;8.616;2023-03-03T08:40:49;59.33;;;30.10;;
27744;SDS011;61387;48.112;8.616;2023-03-03T08:43:15;58.07;;;30.00;;
27744;SDS011;61387;48.112;8.616;2023-03-03T08:48:31;47.63;;;26.17;;
27744;SDS011;61387;48.112;8.616;2023-03-03T08:50:59;54.93;;;28.67;;
27744;SDS011;61387;48.112;8.616;2023-03-03T08:53:24;60.07;;;28.97;;
27744;SDS011;61387;48.112;8.616;2023-03-03T08:55:50;59.10;;;28.40;;
27744;SDS011;61387;48.112;8.616;2023-03-03T08:58:17;61.50;;;29.07;;
27744;SDS011;61387;48.112;8.616;2023-03-03T09:00:44;49.00;;;27.50;;
27744;SDS011;61387;48.112;8.616;2023-03-03T09:03:10;56.63;;;28.37;;
27744;SDS011;61387;48.112;8.616;2023-03-03T09:05:37;54.13;;;28.97;;
27744;SDS011;61387;48.112;8.616;2023-03-03T09:08:03;60.23;;;31.13;;
27744;SDS011;61387;48.112;8.616;2023-03-03T09:10:29;49.23;;;26.17;;
27744;SDS011;61387;48.112;8.616;2023-03-03T09:13:01;51.90;;;26.57;;
27744;SDS011;61387;48.112;8.616;2023-03-03T09:15:32;46.57;;;25.30;;
27744;SDS011;61387;48.112;8.616;2023-03-03T09:18:09;52.10;;;26.07;;
27744;SDS011;61387;48.112;8.616;2023-03-03T09:20:41;45.57;;;26.23;;
27744;SDS011;61387;48.112;8.616;2023-03-03T09:28:35;48.70;;;26.10;;
27744;SDS011;61387;48.112;8.616;2023-03-03T09:31:02;53.43;;;27.13;;
27744;SDS011;61387;48.112;8.616;2023-03-03T09:38:54;51.93;;;26.23;;
27744;SDS011;61387;48.112;8.616;2023-03-03T09:49:34;54.43;;;26.07;;
27744;SDS011;61387;48.112;8.616;2023-03-03T09:52:39;51.87;;;27.50;;
27744;SDS011;61387;48.112;8.616;2023-03-03T10:15:39;48.43;;;25.83;;
27744;SDS011;61387;48.112;8.616;2023-03-03T10:18:48;50.30;;;25.83;;
27744;SDS011;61387;48.112;8.616;2023-03-03T10:21:29;52.10;;;26.43;;
27744;SDS011;61387;48.112;8.616;2023-03-03T10:29:25;55.50;;;27.67;;
27744;SDS011;61387;48.112;8.616;2023-03-03T10:32:06;69.40;;;29.50;;
27744;SDS011;61387;48.112;8.616;2023-03-03T10:34:53;52.37;;;27.87;;
27744;SDS011;61387;48.112;8.616;2023-03-03T10:40:15;47.10;;;27.40;;
27744;SDS011;61387;48.112;8.616;2023-03-03T10:46:12;88.83;;;29.90;;
27744;SDS011;61387;48.112;8.616;2023-03-03T10:48:59;46.87;;;24.77;;
27744;SDS011;61387;48.112;8.616;2023-03-03T11:00:02;50.33;;;25.67;;
27744;SDS011;61387;48.112;8.616;2023-03-03T11:02:48;49.90;;;26.03;;
27744;SDS011;61387;48.112;8.616;2023-03-03T11:08:13;46.83;;;25.07;;
27744;SDS011;61387;48.112;8.616;2023-03-03T11:13:27;53.47;;;25.23;;
27744;SDS011;61387;48.112;8.616;2023-03-03T11:16:27;50.50;;;27.03;;
27744;SDS011;61387;48.112;8.616;2023-03-03T11:24:37;48.63;;;25.53;;
27744;SDS011;61387;48.112;8.616;2023-03-03T11:27:30;47.20;;;25.10;;
27744;SDS011;61387;48.112;8.616;2023-03-03T11:29:59;47.00;;;25.17;;
27744;SDS011;61387;48.112;8.616;2023-03-03T11:40:48;49.57;;;23.93;;
27744;SDS011;61387;48.112;8.616;2023-03-03T11:43:21;44.40;;;24.40;;
27744;SDS011;61387;48.112;8.616;2023-03-03T11:46:03;53.27;;;26.47;;
27744;SDS011;61387;48.112;8.616;2023-03-03T11:48:47;45.00;;;23.83;;
27744;SDS011;61387;48.112;8.616;2023-03-03T11:51:48;69.20;;;26.13;;
27744;SDS011;61387;48.112;8.616;2023-03-03T11:54:24;41.83;;;24.93;;
27744;SDS011;61387;48.112;8.616;2023-03-03T11:56:56;48.83;;;23.33;;
27744;SDS011;61387;48.112;8.616;2023-03-03T12:02:35;49.13;;;25.77;;
27744;SDS011;61387;48.112;8.616;2023-03-03T12:05:13;40.70;;;23.30;;
27744;SDS011;61387;48.112;8.616;2023-03-03T12:13:25;48.13;;;25.63;;
27744;SDS011;61387;48.112;8.616;2023-03-03T12:18:44;53.20;;;25.50;;
27744;SDS011;61387;48.112;8.616;2023-03-03T12:24:30;45.57;;;25.87;;
27744;SDS011;61387;48.112;8.616;2023-03-03T12:27:09;50.57;;;25.63;;
27744;SDS011;61387;48.112;8.616;2023-03-03T12:30:31;41.53;;;24.63;;
27744;SDS011;61387;48.112;8.616;2023-03-03T12:33:21;46.63;;;26.20;;
27744;SDS011;61387;48.112;8.616;2023-03-03T12:46:11;43.03;;;24.83;;
27744;SDS011;61387;48.112;8.616;2023-03-03T12:48:48;47.33;;;24.90;;
27744;SDS011;61387;48.112;8.616;2023-03-03T12:51:34;45.27;;;25.40;;
27744;SDS011;61387;48.112;8.616;2023-03-03T12:56:48;48.90;;;25.63;;
27744;SDS011;61387;48.112;8.616;2023-03-03T12:59:43;49.03;;;24.87;;
27744;SDS011;61387;48.112;8.616;2023-03-03T13:02:33;49.63;;;25.77;;
27744;SDS011;61387;48.112;8.616;2023-03-03T13:07:56;43.67;;;23.90;;
27744;SDS011;61387;48.112;8.616;2023-03-03T13:13:53;43.87;;;23.67;;
27744;SDS011;61387;48.112;8.616;2023-03-03T13:16:44;45.63;;;23.07;;
27744;SDS011;61387;48.112;8.616;2023-03-03T13:19:32;40.37;;;22.23;;
27744;SDS011;61387;48.112;8.616;2023-03-03T13:28:12;40.60;;;23.73;;
27744;SDS011;61387;48.112;8.616;2023-03-03T13:30:42;38.27;;;22.53;;
27744;SDS011;61387;48.112;8.616;2023-03-03T13:38:34;42.20;;;23.07;;
27744;SDS011;61387;48.112;8.616;2023-03-03T13:43:45;42.07;;;21.90;;
27744;SDS011;61387;48.112;8.616;2023-03-03T13:52:19;44.77;;;24.07;;
27744;SDS011;61387;48.112;8.616;2023-03-03T13:54:51;39.10;;;22.90;;
27744;SDS011;61387;48.112;8.616;2023-03-03T14:05:45;42.80;;;22.93;;
27744;SDS011;61387;48.112;8.616;2023-03-03T14:19:34;41.33;;;22.37;;
27744;SDS011;61387;48.112;8.616;2023-03-03T14:22:15;41.93;;;22.20;;
27744;SDS011;61387;48.112;8.616;2023-03-03T14:27:25;40.73;;;22.00;;
27744;SDS011;61387;48.112;8.616;2023-03-03T14:35:34;38.60;;;21.50;;
27744;SDS011;61387;48.112;8.616;2023-03-03T14:40:36;46.87;;;23.30;;
27744;SDS011;61387;48.112;8.616;2023-03-03T14:45:57;38.23;;;23.03;;
27744;SDS011;61387;48.112;8.616;2023-03-03T14:49:04;44.47;;;22.77;;
27744;SDS011;61387;48.112;8.616;2023-03-03T14:54:07;44.20;;;24.57;;
27744;SDS011;61387;48.112;8.616;2023-03-03T14:56:53;41.67;;;24.53;;
27744;SDS011;61387;48.112;8.616;2023-03-03T14:59:20;42.97;;;23.83;;
27744;SDS011;61387;48.112;8.616;2023-03-03T15:04:46;36.97;;;23.00;;
27744;SDS011;61387;48.112;8.616;2023-03-03T15:07:20;39.67;;;22.47;;
27744;SDS011;61387;48.112;8.616;2023-03-03T15:09:51;40.07;;;22.90;;
27744;SDS011;61387;48.112;8.616;2023-03-03T15:12:21;41.37;;;21.33;;
27744;SDS011;61387;48.112;8.616;2023-03-03T15:14:50;35.53;;;20.57;;
27744;SDS011;61387;48.112;8.616;2023-03-03T15:17:30;40.97;;;20.53;;
27744;SDS011;61387;48.112;8.616;2023-03-03T15:20:44;40.63;;;20.87;;
27744;SDS011;61387;48.112;8.616;2023-03-03T15:23:15;38.90;;;22.77;;
27744;SDS011;61387;48.112;8.616;2023-03-03T15:30:57;40.57;;;22.07;;
27744;SDS011;61387;48.112;8.616;2023-03-03T15:36:15;39.50;;;22.03;;
27744;SDS011;61387;48.112;8.616;2023-03-03T15:46:45;39.50;;;21.80;;
27744;SDS011;61387;48.112;8.616;2023-03-03T16:18:56;54.10;;;25.93;;
27744;SDS011;61387;48.112;8.616;2023-03-03T16:27:23;41.93;;;24.13;;
27744;SDS011;61387;48.112;8.616;2023-03-03T16:35:51;47.67;;;26.17;;
27744;SDS011;61387;48.112;8.616;2023-03-03T16:38:42;50.43;;;25.43;;
27744;SDS011;61387;48.112;8.616;2023-03-03T16:41:28;44.17;;;25.77;;
27744;SDS011;61387;48.112;8.616;2023-03-03T16:44:26;44.63;;;24.70;;
27744;SDS011;61387;48.112;8.616;2023-03-03T16:46:55;46.67;;;25.47;;
27744;SDS011;61387;48.112;8.616;2023-03-03T16:49:36;44.33;;;25.90;;
27744;SDS011;61387;48.112;8.616;2023-03-03T16:52:24;44.70;;;24.77;;
27744;SDS011;61387;48.112;8.616;2023-03-03T16:55:10;45.37;;;25.83;;
27744;SDS011;61387;48.112;8.616;2023-03-03T17:00:11;46.03;;;25.73;;
27744;SDS011;61387;48.112;8.616;2023-03-03T17:10:41;45.97;;;26.63;;
27744;SDS011;61387;48.112;8.616;2023-03-03T17:13:18;41.93;;;24.63;;
27744;SDS011;61387;48.112;8.616;2023-03-03T17:16:17;41.97;;;23.97;;
27744;SDS011;61387;48.112;8.616;2023-03-03T17:24:20;54.17;;;24.83;;
27744;SDS011;61387;48.112;8.616;2023-03-03T17:26:59;44.13;;;25.27;;
27744;SDS011;61387;48.112;8.616;2023-03-03T17:29:54;44.30;;;24.30;;
27744;SDS011;61387;48.112;8.616;2023-03-03T17:41:02;39.67;;;22.57;;
27744;SDS011;61387;48.112;8.616;2023-03-03T17:43:40;44.43;;;23.33;;
27744;SDS011;61387;48.112;8.616;2023-03-03T17:46:38;38.77;;;23.10;;
27744;SDS011;61387;48.112;8.616;2023-03-03T17:49:36;42.77;;;22.20;;
27744;SDS011;61387;48.112;8.616;2023-03-03T17:55:06;38.70;;;21.53;;
27744;SDS011;61387;48.112;8.616;2023-03-03T18:06:12;43.37;;;25.50;;
27744;SDS011;61387;48.112;8.616;2023-03-03T18:08:59;50.20;;;28.47;;
27744;SDS011;61387;48.112;8.616;2023-03-03T18:14:26;39.33;;;21.80;;
27744;SDS011;61387;48.112;8.616;2023-03-03T18:17:13;37.30;;;20.63;;
27744;SDS011;61387;48.112;8.616;2023-03-03T18:20:21;37.33;;;20.67;;
27744;SDS011;61387;48.112;8.616;2023-03-03T18:22:58;37.97;;;20.67;;
27744;SDS011;61387;48.112;8.616;2023-03-03T18:34:33;37.57;;;21.13;;
27744;SDS011;61387;48.112;8.616;2023-03-03T18:42:11;40.20;;;22.60;;
27744;SDS011;61387;48.112;8.616;2023-03-03T18:47:58;39.73;;;21.33;;
27744;SDS011;61387;48.112;8.616;2023-03-03T18:55:43;42.97;;;23.10;;
27744;SDS011;61387;48.112;8.616;2023-03-03T19:00:45;41.33;;;21.97;;
27744;SDS011;61387;48.112;8.616;2023-03-03T19:06:11;46.10;;;22.00;;
27744;SDS011;61387;48.112;8.616;2023-03-03T19:09:20;39.03;;;20.80;;
27744;SDS011;61387;48.112;8.616;2023-03-03T19:12:16;39.53;;;21.47;;
27744;SDS011;61387;48.112;8.616;2023-03-03T19:14:43;42.53;;;22.33;;
27744;SDS011;61387;48.112;8.616;2023-03-03T19:22:32;43.00;;;22.83;;
27744;SDS011;61387;48.112;8.616;2023-03-03T19:25:13;50.97;;;24.87;;
27744;SDS011;61387;48.112;8.616;2023-03-03T19:27:50;47.23;;;23.63;;
27744;SDS011;61387;48.112;8.616;2023-03-03T19:30:54;43.23;;;24.30;;
27744;SDS011;61387;48.112;8.616;2023-03-03T19:34:05;46.93;;;25.07;;
27744;SDS011;61387;48.112;8.616;2023-03-03T19:39:36;45.50;;;24.57;;
27744;SDS011;61387;48.112;8.616;2023-03-03T19:45:02;50.30;;;24.87;;
27744;SDS011;61387;48.112;8.616;2023-03-03T19:47:45;49.20;;;25.50;;
27744;SDS011;61387;48.112;8.616;2023-03-03T19:50:18;52.30;;;28.50;;
27744;SDS011;61387;48.112;8.616;2023-03-03T19:56:14;51.47;;;25.80;;
27744;SDS011;61387;48.112;8.616;2023-03-03T20:01:56;75.00;;;37.07;;
27744;SDS011;61387;48.112;8.616;2023-03-03T20:04:38;83.00;;;35.20;;
27744;SDS011;61387;48.112;8.616;2023-03-03T20:12:42;65.70;;;32.93;;
27744;SDS011;61387;48.112;8.616;2023-03-03T20:15:13;57.03;;;30.00;;
27744;SDS011;61387;48.112;8.616;2023-03-03T20:17:50;58.67;;;30.90;;
27744;SDS011;61387;48.112;8.616;2023-03-03T20:20:34;64.60;;;34.37;;
27744;SDS011;61387;48.112;8.616;2023-03-03T20:23:23;62.37;;;31.77;;
27744;SDS011;61387;48.112;8.616;2023-03-03T20:26:32;62.10;;;31.97;;
27744;SDS011;61387;48.112;8.616;2023-03-03T20:29:10;68.03;;;33.80;;
27744;SDS011;61387;48.112;8.616;2023-03-03T20:42:44;62.13;;;31.97;;
27744;SDS011;61387;48.112;8.616;2023-03-03T20:51:11;52.73;;;27.80;;
27744;SDS011;61387;48.112;8.616;2023-03-03T20:54:02;53.50;;;29.23;;
27744;SDS011;61387;48.112;8.616;2023-03-03T20:56:41;62.03;;;29.83;;
27744;SDS011;61387;48.112;8.616;2023-03-03T21:04:30;57.60;;;29.03;;
27744;SDS011;61387;48.112;8.616;2023-03-03T21:07:01;60.17;;;30.50;;
27744;SDS011;61387;48.112;8.616;2023-03-03T21:09:29;57.43;;;29.17;;
27744;SDS011;61387;48.112;8.616;2023-03-03T21:12:00;56.77;;;29.87;;